Halifax, Nova Scotia

1:59 PM ADT on March 28, 2017 (GMT -0300)
Shwartswald | | Change Station

Elev -22 ft 44.84 °N, 63.59 °W | Updated 20 seconds ago

Light Freezing Drizzle
Light Freezing Drizzle Mist
32.9 °F
Feels Like 33 °F
N
1.1
Wind Variable Wind from South

Today
High -- | Low -- °F
--% Chance of Precip.
Yesterday
High -- | Low -- °F
Precip. -- in
Pressure 30.06 in
Visibility 2.5 miles
Clouds Overcast 700 ft
Windchill 33 °F
Dew Point 29 °F
Humidity 86%
Rainfall 0.00 in
Snow Depth Not available.
7:01 AM 7:36 PM
New Moon, 0% visible
METAR CYHZ 281600Z 09017KT 2 1/2SM -FZDZ BR OVC007 M01/M02 A3003 RMK ST8 SLP180
Pressure 30.06 in
Visibility 2.5 miles
Clouds Overcast 700 ft
Windchill 33 °F
Dew Point 29 °F
Humidity 86%
Rainfall 0.00 in
Snow Depth Not available.
7:01 AM 7:36 PM
New Moon, 0% visible
METAR CYHZ 281600Z 09017KT 2 1/2SM -FZDZ BR OVC007 M01/M02 A3003 RMK ST8 SLP180

Get Severe Weather Alerts

Thanks for signing up!

Be on the lookout for a verification email in your inbox.

You'll start receiving the daily forecast at 8 AM.

×

10-Day Weather Forecast

Almanac

Astronomy

Mar. 28, 2017 Rise Set
Actual Time
Civil Twilight
Nautical Twilight
Astronomical Twilight
Moon
Length of Visible Light
Length of Day
Tomorrow will be .
, % of the Moon is Illuminated

Today's Extremes

Country Highs Country Lows

Community

WunderPhotos

Upload Photos

1,962,540 photos uploaded!

WunderBlog® & News

Nearby

Air Quality

  Air Quality AQ Index Pollutant
Not available.

Snow Depth

Station Depth Elevation

Earthquake Activity

City Distance Mag. Time & Date
Minimum magnitude displayed is 2.5.

Earthquake Activity

City Distance Mag. Time & Date
Minimum magnitude displayed is 2.5.

Coastal Water Temperatures

Place Temperature

Stations

Nearby Weather Stations

Station Location Temp. Windchill Dew Point Humidity Wind Precip. Elev Updated Type
                   

Watches & Warnings

There are currently no watches in effect.